sensor_id;sensor_type;location;lat;lon;timestamp;P1;durP1;ratioP1;P2;durP2;ratioP2
72621;SDS011;60665;53.506;9.582;2023-06-14T00:01:00;6.68;;;2.00;;
72621;SDS011;60665;53.506;9.582;2023-06-14T00:03:28;4.35;;;1.60;;
72621;SDS011;60665;53.506;9.582;2023-06-14T00:05:54;6.20;;;2.10;;
72621;SDS011;60665;53.506;9.582;2023-06-14T00:08:20;4.10;;;1.60;;
72621;SDS011;60665;53.506;9.582;2023-06-14T00:10:47;4.88;;;1.92;;
72621;SDS011;60665;53.506;9.582;2023-06-14T00:13:13;5.05;;;1.80;;
72621;SDS011;60665;53.506;9.582;2023-06-14T00:15:41;4.78;;;1.90;;
72621;SDS011;60665;53.506;9.582;2023-06-14T00:18:07;6.93;;;1.83;;
72621;SDS011;60665;53.506;9.582;2023-06-14T00:20:35;3.72;;;1.63;;
72621;SDS011;60665;53.506;9.582;2023-06-14T00:23:01;3.72;;;1.60;;
72621;SDS011;60665;53.506;9.582;2023-06-14T00:25:28;5.20;;;1.70;;
72621;SDS011;60665;53.506;9.582;2023-06-14T00:27:56;5.70;;;1.95;;
72621;SDS011;60665;53.506;9.582;2023-06-14T00:30:22;4.88;;;1.80;;
72621;SDS011;60665;53.506;9.582;2023-06-14T00:32:48;5.38;;;1.77;;
72621;SDS011;60665;53.506;9.582;2023-06-14T00:35:14;4.95;;;1.90;;
72621;SDS011;60665;53.506;9.582;2023-06-14T00:37:40;4.25;;;1.73;;
72621;SDS011;60665;53.506;9.582;2023-06-14T00:40:25;5.65;;;1.75;;
72621;SDS011;60665;53.506;9.582;2023-06-14T00:42:51;6.85;;;1.95;;
72621;SDS011;60665;53.506;9.582;2023-06-14T00:45:16;4.05;;;1.63;;
72621;SDS011;60665;53.506;9.582;2023-06-14T00:47:42;4.40;;;1.85;;
72621;SDS011;60665;53.506;9.582;2023-06-14T00:50:09;7.10;;;1.90;;
72621;SDS011;60665;53.506;9.582;2023-06-14T00:52:35;5.72;;;2.10;;
72621;SDS011;60665;53.506;9.582;2023-06-14T00:55:01;4.65;;;1.90;;
72621;SDS011;60665;53.506;9.582;2023-06-14T00:57:27;5.28;;;2.05;;
72621;SDS011;60665;53.506;9.582;2023-06-14T00:59:54;5.60;;;2.10;;
72621;SDS011;60665;53.506;9.582;2023-06-14T01:02:20;5.47;;;1.75;;
72621;SDS011;60665;53.506;9.582;2023-06-14T01:04:46;6.13;;;2.00;;
72621;SDS011;60665;53.506;9.582;2023-06-14T01:16:05;6.40;;;1.80;;
72621;SDS011;60665;53.506;9.582;2023-06-14T01:18:31;4.85;;;1.80;;
72621;SDS011;60665;53.506;9.582;2023-06-14T01:21:00;5.00;;;2.10;;
72621;SDS011;60665;53.506;9.582;2023-06-14T01:23:30;4.32;;;1.63;;
72621;SDS011;60665;53.506;9.582;2023-06-14T01:25:58;4.63;;;1.98;;
72621;SDS011;60665;53.506;9.582;2023-06-14T01:28:25;5.75;;;2.15;;
72621;SDS011;60665;53.506;9.582;2023-06-14T01:30:57;5.45;;;2.10;;
72621;SDS011;60665;53.506;9.582;2023-06-14T01:33:26;7.22;;;1.98;;
72621;SDS011;60665;53.506;9.582;2023-06-14T01:35:53;6.07;;;2.03;;
72621;SDS011;60665;53.506;9.582;2023-06-14T01:38:24;5.53;;;2.15;;
72621;SDS011;60665;53.506;9.582;2023-06-14T01:40:50;5.55;;;1.98;;
72621;SDS011;60665;53.506;9.582;2023-06-14T01:43:18;6.70;;;2.08;;
72621;SDS011;60665;53.506;9.582;2023-06-14T01:45:44;9.00;;;2.33;;
72621;SDS011;60665;53.506;9.582;2023-06-14T01:48:11;5.63;;;1.92;;
72621;SDS011;60665;53.506;9.582;2023-06-14T01:50:36;6.43;;;2.45;;
72621;SDS011;60665;53.506;9.582;2023-06-14T01:53:06;5.85;;;1.75;;
72621;SDS011;60665;53.506;9.582;2023-06-14T01:55:33;4.35;;;1.92;;
72621;SDS011;60665;53.506;9.582;2023-06-14T01:58:02;6.55;;;2.00;;
72621;SDS011;60665;53.506;9.582;2023-06-14T02:00:31;5.90;;;2.03;;
72621;SDS011;60665;53.506;9.582;2023-06-14T02:02:56;5.63;;;2.03;;
72621;SDS011;60665;53.506;9.582;2023-06-14T02:05:22;5.72;;;2.20;;
72621;SDS011;60665;53.506;9.582;2023-06-14T02:07:47;5.57;;;2.15;;
72621;SDS011;60665;53.506;9.582;2023-06-14T02:10:13;6.60;;;2.17;;
72621;SDS011;60665;53.506;9.582;2023-06-14T02:12:44;6.68;;;2.50;;
72621;SDS011;60665;53.506;9.582;2023-06-14T02:15:09;7.43;;;2.05;;
72621;SDS011;60665;53.506;9.582;2023-06-14T02:17:42;5.85;;;2.25;;
72621;SDS011;60665;53.506;9.582;2023-06-14T02:20:08;4.75;;;2.08;;
72621;SDS011;60665;53.506;9.582;2023-06-14T02:22:34;6.78;;;2.40;;
72621;SDS011;60665;53.506;9.582;2023-06-14T02:25:00;6.75;;;2.17;;
72621;SDS011;60665;53.506;9.582;2023-06-14T02:27:27;8.30;;;2.95;;
72621;SDS011;60665;53.506;9.582;2023-06-14T02:29:52;7.07;;;2.30;;
72621;SDS011;60665;53.506;9.582;2023-06-14T02:32:17;6.00;;;2.22;;
72621;SDS011;60665;53.506;9.582;2023-06-14T02:34:44;8.93;;;2.47;;
72621;SDS011;60665;53.506;9.582;2023-06-14T02:37:14;5.07;;;2.17;;
72621;SDS011;60665;53.506;9.582;2023-06-14T02:39:40;4.60;;;2.13;;
72621;SDS011;60665;53.506;9.582;2023-06-14T02:42:05;5.25;;;2.08;;
72621;SDS011;60665;53.506;9.582;2023-06-14T02:44:31;6.43;;;2.05;;
72621;SDS011;60665;53.506;9.582;2023-06-14T02:46:57;5.80;;;2.17;;
72621;SDS011;60665;53.506;9.582;2023-06-14T02:49:23;7.53;;;2.22;;
72621;SDS011;60665;53.506;9.582;2023-06-14T02:51:50;5.47;;;2.33;;
72621;SDS011;60665;53.506;9.582;2023-06-14T02:54:16;6.47;;;2.10;;
72621;SDS011;60665;53.506;9.582;2023-06-14T02:56:41;6.10;;;2.17;;
72621;SDS011;60665;53.506;9.582;2023-06-14T02:59:07;6.57;;;2.50;;
72621;SDS011;60665;53.506;9.582;2023-06-14T03:01:34;8.23;;;2.22;;
72621;SDS011;60665;53.506;9.582;2023-06-14T03:04:02;4.72;;;2.17;;
72621;SDS011;60665;53.506;9.582;2023-06-14T03:06:28;8.10;;;3.03;;
72621;SDS011;60665;53.506;9.582;2023-06-14T03:08:58;8.07;;;2.33;;
72621;SDS011;60665;53.506;9.582;2023-06-14T03:11:29;5.00;;;2.47;;
72621;SDS011;60665;53.506;9.582;2023-06-14T03:13:55;5.60;;;2.33;;
72621;SDS011;60665;53.506;9.582;2023-06-14T03:16:21;7.10;;;2.63;;
72621;SDS011;60665;53.506;9.582;2023-06-14T03:18:49;5.78;;;2.50;;
72621;SDS011;60665;53.506;9.582;2023-06-14T03:21:15;8.18;;;2.78;;
72621;SDS011;60665;53.506;9.582;2023-06-14T03:23:41;7.50;;;2.30;;
72621;SDS011;60665;53.506;9.582;2023-06-14T03:26:07;5.80;;;2.20;;
72621;SDS011;60665;53.506;9.582;2023-06-14T03:28:33;5.85;;;2.58;;
72621;SDS011;60665;53.506;9.582;2023-06-14T03:30:59;9.75;;;2.67;;
72621;SDS011;60665;53.506;9.582;2023-06-14T03:33:24;6.90;;;2.33;;
72621;SDS011;60665;53.506;9.582;2023-06-14T03:35:52;5.57;;;2.30;;
72621;SDS011;60665;53.506;9.582;2023-06-14T03:38:18;9.48;;;2.40;;
72621;SDS011;60665;53.506;9.582;2023-06-14T03:40:44;6.47;;;2.30;;
72621;SDS011;60665;53.506;9.582;2023-06-14T03:43:11;7.20;;;2.20;;
72621;SDS011;60665;53.506;9.582;2023-06-14T03:45:37;9.05;;;2.40;;
72621;SDS011;60665;53.506;9.582;2023-06-14T03:48:04;11.32;;;2.70;;
72621;SDS011;60665;53.506;9.582;2023-06-14T03:50:31;7.85;;;2.40;;
72621;SDS011;60665;53.506;9.582;2023-06-14T03:52:57;9.82;;;3.10;;
72621;SDS011;60665;53.506;9.582;2023-06-14T03:55:23;7.82;;;3.00;;
72621;SDS011;60665;53.506;9.582;2023-06-14T03:57:50;6.40;;;2.60;;
72621;SDS011;60665;53.506;9.582;2023-06-14T04:00:16;6.65;;;2.92;;
72621;SDS011;60665;53.506;9.582;2023-06-14T04:02:43;6.40;;;2.70;;
72621;SDS011;60665;53.506;9.582;2023-06-14T04:05:09;6.05;;;2.53;;
72621;SDS011;60665;53.506;9.582;2023-06-14T04:07:35;7.00;;;2.78;;
72621;SDS011;60665;53.506;9.582;2023-06-14T04:10:07;7.80;;;2.42;;
72621;SDS011;60665;53.506;9.582;2023-06-14T04:12:33;10.98;;;3.67;;
72621;SDS011;60665;53.506;9.582;2023-06-14T04:14:59;6.72;;;2.78;;
72621;SDS011;60665;53.506;9.582;2023-06-14T04:17:25;7.28;;;2.47;;
72621;SDS011;60665;53.506;9.582;2023-06-14T04:19:50;7.80;;;2.72;;
72621;SDS011;60665;53.506;9.582;2023-06-14T04:22:17;9.80;;;3.13;;
72621;SDS011;60665;53.506;9.582;2023-06-14T04:24:43;6.45;;;2.58;;
72621;SDS011;60665;53.506;9.582;2023-06-14T04:27:10;7.07;;;2.95;;
72621;SDS011;60665;53.506;9.582;2023-06-14T04:29:35;7.57;;;3.00;;
72621;SDS011;60665;53.506;9.582;2023-06-14T04:32:01;6.10;;;2.80;;
72621;SDS011;60665;53.506;9.582;2023-06-14T04:34:27;8.63;;;2.80;;
72621;SDS011;60665;53.506;9.582;2023-06-14T04:36:56;9.35;;;2.75;;
72621;SDS011;60665;53.506;9.582;2023-06-14T04:39:23;8.18;;;3.03;;
72621;SDS011;60665;53.506;9.582;2023-06-14T04:41:50;7.63;;;2.60;;
72621;SDS011;60665;53.506;9.582;2023-06-14T04:44:21;6.05;;;2.58;;
72621;SDS011;60665;53.506;9.582;2023-06-14T04:46:54;5.10;;;2.47;;
72621;SDS011;60665;53.506;9.582;2023-06-14T04:49:25;7.65;;;2.75;;
72621;SDS011;60665;53.506;9.582;2023-06-14T04:51:52;6.07;;;3.05;;
72621;SDS011;60665;53.506;9.582;2023-06-14T04:54:23;6.60;;;2.53;;
72621;SDS011;60665;53.506;9.582;2023-06-14T04:56:51;9.55;;;2.50;;
72621;SDS011;60665;53.506;9.582;2023-06-14T04:59:18;6.07;;;2.38;;
72621;SDS011;60665;53.506;9.582;2023-06-14T05:01:45;5.53;;;2.22;;
72621;SDS011;60665;53.506;9.582;2023-06-14T05:04:15;5.85;;;2.47;;
72621;SDS011;60665;53.506;9.582;2023-06-14T05:06:45;5.68;;;2.35;;
72621;SDS011;60665;53.506;9.582;2023-06-14T05:09:11;9.80;;;2.80;;
72621;SDS011;60665;53.506;9.582;2023-06-14T05:11:38;5.93;;;2.60;;
72621;SDS011;60665;53.506;9.582;2023-06-14T05:14:04;7.00;;;2.60;;
72621;SDS011;60665;53.506;9.582;2023-06-14T05:16:31;7.57;;;2.55;;
72621;SDS011;60665;53.506;9.582;2023-06-14T05:18:56;7.88;;;2.63;;
72621;SDS011;60665;53.506;9.582;2023-06-14T05:21:24;9.05;;;2.47;;
72621;SDS011;60665;53.506;9.582;2023-06-14T05:23:50;6.30;;;2.83;;
72621;SDS011;60665;53.506;9.582;2023-06-14T05:26:16;10.05;;;2.85;;
72621;SDS011;60665;53.506;9.582;2023-06-14T05:28:42;11.02;;;3.05;;
72621;SDS011;60665;53.506;9.582;2023-06-14T05:31:07;7.72;;;2.90;;
72621;SDS011;60665;53.506;9.582;2023-06-14T05:33:32;6.82;;;2.78;;
72621;SDS011;60665;53.506;9.582;2023-06-14T05:35:58;6.88;;;2.72;;
72621;SDS011;60665;53.506;9.582;2023-06-14T05:38:23;7.78;;;2.38;;
72621;SDS011;60665;53.506;9.582;2023-06-14T05:40:49;7.15;;;2.45;;
72621;SDS011;60665;53.506;9.582;2023-06-14T05:43:14;6.85;;;2.67;;
72621;SDS011;60665;53.506;9.582;2023-06-14T05:45:40;7.60;;;3.20;;
72621;SDS011;60665;53.506;9.582;2023-06-14T05:48:05;9.38;;;2.88;;
72621;SDS011;60665;53.506;9.582;2023-06-14T05:50:30;10.77;;;2.78;;
72621;SDS011;60665;53.506;9.582;2023-06-14T05:52:56;7.00;;;2.58;;
72621;SDS011;60665;53.506;9.582;2023-06-14T05:55:21;7.07;;;2.17;;
72621;SDS011;60665;53.506;9.582;2023-06-14T05:57:47;7.28;;;2.38;;
72621;SDS011;60665;53.506;9.582;2023-06-14T06:00:13;5.78;;;2.45;;
72621;SDS011;60665;53.506;9.582;2023-06-14T06:02:42;7.47;;;2.60;;
72621;SDS011;60665;53.506;9.582;2023-06-14T06:05:10;8.85;;;2.90;;
72621;SDS011;60665;53.506;9.582;2023-06-14T06:07:36;10.88;;;2.30;;
72621;SDS011;60665;53.506;9.582;2023-06-14T06:10:03;6.80;;;2.42;;
72621;SDS011;60665;53.506;9.582;2023-06-14T06:12:31;7.40;;;2.65;;
72621;SDS011;60665;53.506;9.582;2023-06-14T06:14:58;7.40;;;2.80;;
72621;SDS011;60665;53.506;9.582;2023-06-14T06:17:25;8.57;;;2.67;;
72621;SDS011;60665;53.506;9.582;2023-06-14T06:19:51;6.75;;;2.70;;
72621;SDS011;60665;53.506;9.582;2023-06-14T06:22:17;14.35;;;3.00;;
72621;SDS011;60665;53.506;9.582;2023-06-14T06:24:42;10.88;;;2.58;;
72621;SDS011;60665;53.506;9.582;2023-06-14T06:27:08;7.20;;;2.95;;
72621;SDS011;60665;53.506;9.582;2023-06-14T06:29:33;8.10;;;2.95;;
72621;SDS011;60665;53.506;9.582;2023-06-14T06:32:00;8.07;;;2.92;;
72621;SDS011;60665;53.506;9.582;2023-06-14T06:34:25;9.95;;;2.95;;
72621;SDS011;60665;53.506;9.582;2023-06-14T06:36:51;10.45;;;2.80;;
72621;SDS011;60665;53.506;9.582;2023-06-14T06:39:17;8.50;;;2.90;;
72621;SDS011;60665;53.506;9.582;2023-06-14T06:41:44;9.52;;;3.00;;
72621;SDS011;60665;53.506;9.582;2023-06-14T06:44:09;6.15;;;2.58;;
72621;SDS011;60665;53.506;9.582;2023-06-14T06:46:36;9.15;;;2.95;;
72621;SDS011;60665;53.506;9.582;2023-06-14T06:49:06;8.40;;;2.58;;
72621;SDS011;60665;53.506;9.582;2023-06-14T06:51:32;6.18;;;2.65;;
72621;SDS011;60665;53.506;9.582;2023-06-14T06:53:58;8.60;;;2.85;;
72621;SDS011;60665;53.506;9.582;2023-06-14T06:56:23;10.30;;;2.60;;
72621;SDS011;60665;53.506;9.582;2023-06-14T06:58:49;7.93;;;2.20;;
72621;SDS011;60665;53.506;9.582;2023-06-14T07:01:16;8.85;;;2.58;;
72621;SDS011;60665;53.506;9.582;2023-06-14T07:03:42;11.55;;;2.55;;
72621;SDS011;60665;53.506;9.582;2023-06-14T07:06:09;7.65;;;2.20;;
72621;SDS011;60665;53.506;9.582;2023-06-14T07:08:35;7.90;;;2.13;;
72621;SDS011;60665;53.506;9.582;2023-06-14T07:11:01;7.05;;;2.15;;
72621;SDS011;60665;53.506;9.582;2023-06-14T07:13:27;6.82;;;2.42;;
72621;SDS011;60665;53.506;9.582;2023-06-14T07:15:59;7.93;;;2.08;;
72621;SDS011;60665;53.506;9.582;2023-06-14T07:18:28;7.43;;;2.35;;
72621;SDS011;60665;53.506;9.582;2023-06-14T07:20:54;7.13;;;1.50;;
72621;SDS011;60665;53.506;9.582;2023-06-14T07:23:22;8.70;;;1.70;;
72621;SDS011;60665;53.506;9.582;2023-06-14T07:25:47;4.88;;;1.92;;
72621;SDS011;60665;53.506;9.582;2023-06-14T07:28:13;5.68;;;1.92;;
72621;SDS011;60665;53.506;9.582;2023-06-14T07:30:38;7.25;;;2.20;;
72621;SDS011;60665;53.506;9.582;2023-06-14T07:33:04;6.90;;;1.92;;
72621;SDS011;60665;53.506;9.582;2023-06-14T07:35:29;8.85;;;1.70;;
72621;SDS011;60665;53.506;9.582;2023-06-14T07:37:54;8.45;;;1.92;;
72621;SDS011;60665;53.506;9.582;2023-06-14T07:40:23;5.50;;;2.00;;
72621;SDS011;60665;53.506;9.582;2023-06-14T07:42:49;10.75;;;2.30;;
72621;SDS011;60665;53.506;9.582;2023-06-14T07:45:15;6.35;;;2.08;;
72621;SDS011;60665;53.506;9.582;2023-06-14T07:47:41;4.00;;;1.85;;
72621;SDS011;60665;53.506;9.582;2023-06-14T07:50:06;10.45;;;1.95;;
72621;SDS011;60665;53.506;9.582;2023-06-14T07:52:32;4.53;;;1.63;;
72621;SDS011;60665;53.506;9.582;2023-06-14T07:54:57;5.60;;;1.75;;
72621;SDS011;60665;53.506;9.582;2023-06-14T07:57:23;4.50;;;1.70;;
72621;SDS011;60665;53.506;9.582;2023-06-14T07:59:48;7.85;;;1.95;;
72621;SDS011;60665;53.506;9.582;2023-06-14T08:02:15;8.18;;;1.70;;
72621;SDS011;60665;53.506;9.582;2023-06-14T08:04:41;6.75;;;2.22;;
72621;SDS011;60665;53.506;9.582;2023-06-14T08:07:07;6.70;;;2.15;;
72621;SDS011;60665;53.506;9.582;2023-06-14T08:09:34;5.20;;;1.63;;
72621;SDS011;60665;53.506;9.582;2023-06-14T08:12:02;3.63;;;1.60;;
72621;SDS011;60665;53.506;9.582;2023-06-14T08:14:29;4.72;;;1.75;;
72621;SDS011;60665;53.506;9.582;2023-06-14T08:16:56;4.32;;;1.65;;
72621;SDS011;60665;53.506;9.582;2023-06-14T08:19:22;4.55;;;1.55;;
72621;SDS011;60665;53.506;9.582;2023-06-14T08:21:48;3.92;;;1.67;;
72621;SDS011;60665;53.506;9.582;2023-06-14T08:24:14;5.13;;;1.60;;
72621;SDS011;60665;53.506;9.582;2023-06-14T08:26:39;4.03;;;1.50;;
72621;SDS011;60665;53.506;9.582;2023-06-14T08:29:06;4.70;;;2.00;;
72621;SDS011;60665;53.506;9.582;2023-06-14T08:31:33;4.88;;;1.80;;
72621;SDS011;60665;53.506;9.582;2023-06-14T08:34:00;5.43;;;1.90;;
72621;SDS011;60665;53.506;9.582;2023-06-14T08:36:25;5.05;;;1.80;;
72621;SDS011;60665;53.506;9.582;2023-06-14T08:38:51;6.70;;;1.50;;
72621;SDS011;60665;53.506;9.582;2023-06-14T08:41:25;4.70;;;1.95;;
72621;SDS011;60665;53.506;9.582;2023-06-14T08:43:52;5.55;;;1.70;;
72621;SDS011;60665;53.506;9.582;2023-06-14T08:46:17;6.32;;;1.60;;
72621;SDS011;60665;53.506;9.582;2023-06-14T08:48:51;6.88;;;1.92;;
72621;SDS011;60665;53.506;9.582;2023-06-14T08:51:18;5.22;;;1.70;;
72621;SDS011;60665;53.506;9.582;2023-06-14T08:53:44;5.05;;;1.80;;
72621;SDS011;60665;53.506;9.582;2023-06-14T08:56:10;4.55;;;1.80;;
72621;SDS011;60665;53.506;9.582;2023-06-14T08:58:40;4.30;;;1.92;;
72621;SDS011;60665;53.506;9.582;2023-06-14T09:01:10;5.07;;;1.85;;
72621;SDS011;60665;53.506;9.582;2023-06-14T09:03:39;5.47;;;1.52;;
72621;SDS011;60665;53.506;9.582;2023-06-14T09:06:08;5.35;;;1.50;;
72621;SDS011;60665;53.506;9.582;2023-06-14T09:08:45;4.88;;;1.80;;
72621;SDS011;60665;53.506;9.582;2023-06-14T09:11:12;5.43;;;1.80;;
72621;SDS011;60665;53.506;9.582;2023-06-14T09:13:38;5.75;;;1.83;;
72621;SDS011;60665;53.506;9.582;2023-06-14T09:16:04;7.15;;;2.03;;
72621;SDS011;60665;53.506;9.582;2023-06-14T09:18:41;7.03;;;1.92;;
72621;SDS011;60665;53.506;9.582;2023-06-14T09:21:10;8.35;;;2.25;;
72621;SDS011;60665;53.506;9.582;2023-06-14T09:23:46;5.60;;;1.80;;
72621;SDS011;60665;53.506;9.582;2023-06-14T09:26:18;5.78;;;2.30;;
72621;SDS011;60665;53.506;9.582;2023-06-14T09:28:49;6.72;;;2.10;;
72621;SDS011;60665;53.506;9.582;2023-06-14T09:31:19;7.78;;;2.35;;
72621;SDS011;60665;53.506;9.582;2023-06-14T09:33:48;7.07;;;2.58;;
72621;SDS011;60665;53.506;9.582;2023-06-14T09:36:18;7.32;;;2.25;;
72621;SDS011;60665;53.506;9.582;2023-06-14T09:39:00;5.57;;;2.33;;
72621;SDS011;60665;53.506;9.582;2023-06-14T09:41:31;5.38;;;2.08;;
72621;SDS011;60665;53.506;9.582;2023-06-14T09:43:59;4.88;;;1.98;;
72621;SDS011;60665;53.506;9.582;2023-06-14T09:46:26;6.75;;;2.10;;
72621;SDS011;60665;53.506;9.582;2023-06-14T09:48:56;5.85;;;2.38;;
72621;SDS011;60665;53.506;9.582;2023-06-14T09:51:22;8.70;;;2.20;;
72621;SDS011;60665;53.506;9.582;2023-06-14T09:53:48;8.95;;;2.40;;
72621;SDS011;60665;53.506;9.582;2023-06-14T09:58:57;6.78;;;2.08;;
72621;SDS011;60665;53.506;9.582;2023-06-14T10:03:57;5.82;;;2.05;;
72621;SDS011;60665;53.506;9.582;2023-06-14T10:06:26;9.73;;;2.17;;
72621;SDS011;60665;53.506;9.582;2023-06-14T10:08:56;6.30;;;2.10;;
72621;SDS011;60665;53.506;9.582;2023-06-14T10:11:25;5.25;;;2.10;;
72621;SDS011;60665;53.506;9.582;2023-06-14T10:13:52;7.43;;;2.25;;
72621;SDS011;60665;53.506;9.582;2023-06-14T10:16:44;5.50;;;2.00;;
72621;SDS011;60665;53.506;9.582;2023-06-14T10:19:36;10.00;;;2.17;;
72621;SDS011;60665;53.506;9.582;2023-06-14T10:24:32;6.13;;;2.22;;
72621;SDS011;60665;53.506;9.582;2023-06-14T10:27:00;8.93;;;2.20;;
72621;SDS011;60665;53.506;9.582;2023-06-14T10:29:26;7.53;;;2.63;;
72621;SDS011;60665;53.506;9.582;2023-06-14T10:31:57;6.90;;;1.95;;
72621;SDS011;60665;53.506;9.582;2023-06-14T10:37:06;8.55;;;2.45;;
72621;SDS011;60665;53.506;9.582;2023-06-14T10:39:38;10.52;;;2.38;;
72621;SDS011;60665;53.506;9.582;2023-06-14T10:42:06;6.15;;;2.10;;
72621;SDS011;60665;53.506;9.582;2023-06-14T10:47:06;6.13;;;2.47;;
72621;SDS011;60665;53.506;9.582;2023-06-14T10:49:40;6.03;;;2.10;;
72621;SDS011;60665;53.506;9.582;2023-06-14T10:55:26;7.35;;;2.28;;
72621;SDS011;60665;53.506;9.582;2023-06-14T10:57:43;4.78;;;2.33;;
72621;SDS011;60665;53.506;9.582;2023-06-14T11:00:16;7.53;;;2.83;;
72621;SDS011;60665;53.506;9.582;2023-06-14T11:05:25;13.88;;;2.75;;
72621;SDS011;60665;53.506;9.582;2023-06-14T11:10:44;6.50;;;2.10;;
72621;SDS011;60665;53.506;9.582;2023-06-14T11:13:12;6.65;;;2.58;;
72621;SDS011;60665;53.506;9.582;2023-06-14T11:15:38;8.65;;;2.00;;
72621;SDS011;60665;53.506;9.582;2023-06-14T11:18:07;6.90;;;2.42;;
72621;SDS011;60665;53.506;9.582;2023-06-14T11:20:36;10.20;;;2.13;;
72621;SDS011;60665;53.506;9.582;2023-06-14T11:23:03;6.20;;;2.13;;
72621;SDS011;60665;53.506;9.582;2023-06-14T11:25:30;9.98;;;2.50;;
72621;SDS011;60665;53.506;9.582;2023-06-14T11:27:55;6.00;;;2.10;;
72621;SDS011;60665;53.506;9.582;2023-06-14T11:30:22;5.18;;;2.20;;
72621;SDS011;60665;53.506;9.582;2023-06-14T11:32:49;5.65;;;2.20;;
72621;SDS011;60665;53.506;9.582;2023-06-14T11:35:15;5.50;;;1.98;;
72621;SDS011;60665;53.506;9.582;2023-06-14T11:37:43;5.32;;;2.42;;
72621;SDS011;60665;53.506;9.582;2023-06-14T11:40:10;7.47;;;2.58;;
72621;SDS011;60665;53.506;9.582;2023-06-14T11:42:38;7.32;;;2.40;;
72621;SDS011;60665;53.506;9.582;2023-06-14T11:45:10;8.50;;;2.25;;
72621;SDS011;60665;53.506;9.582;2023-06-14T11:47:37;8.05;;;2.63;;
72621;SDS011;60665;53.506;9.582;2023-06-14T11:50:08;5.55;;;2.35;;
72621;SDS011;60665;53.506;9.582;2023-06-14T11:52:35;7.25;;;2.65;;
72621;SDS011;60665;53.506;9.582;2023-06-14T11:55:01;6.05;;;2.53;;
72621;SDS011;60665;53.506;9.582;2023-06-14T11:57:30;7.53;;;2.33;;
72621;SDS011;60665;53.506;9.582;2023-06-14T11:59:59;7.30;;;2.40;;
72621;SDS011;60665;53.506;9.582;2023-06-14T12:02:24;5.22;;;2.67;;
72621;SDS011;60665;53.506;9.582;2023-06-14T12:04:52;7.78;;;2.83;;
72621;SDS011;60665;53.506;9.582;2023-06-14T12:07:19;4.07;;;2.50;;
72621;SDS011;60665;53.506;9.582;2023-06-14T12:12:39;10.57;;;2.20;;
72621;SDS011;60665;53.506;9.582;2023-06-14T12:15:06;7.03;;;2.13;;
72621;SDS011;60665;53.506;9.582;2023-06-14T12:17:35;8.70;;;2.20;;
72621;SDS011;60665;53.506;9.582;2023-06-14T12:20:07;5.63;;;2.47;;
72621;SDS011;60665;53.506;9.582;2023-06-14T12:22:57;5.07;;;2.30;;
72621;SDS011;60665;53.506;9.582;2023-06-14T12:25:26;5.95;;;2.38;;
72621;SDS011;60665;53.506;9.582;2023-06-14T12:27:59;8.63;;;2.40;;
72621;SDS011;60665;53.506;9.582;2023-06-14T12:30:33;5.75;;;2.28;;
72621;SDS011;60665;53.506;9.582;2023-06-14T12:32:59;5.13;;;2.50;;
72621;SDS011;60665;53.506;9.582;2023-06-14T12:35:25;6.50;;;2.42;;
72621;SDS011;60665;53.506;9.582;2023-06-14T12:37:50;7.72;;;2.10;;
72621;SDS011;60665;53.506;9.582;2023-06-14T12:40:16;4.53;;;2.42;;
72621;SDS011;60665;53.506;9.582;2023-06-14T12:42:41;5.32;;;2.60;;
72621;SDS011;60665;53.506;9.582;2023-06-14T12:45:07;17.98;;;3.17;;
72621;SDS011;60665;53.506;9.582;2023-06-14T12:47:33;5.25;;;2.25;;
72621;SDS011;60665;53.506;9.582;2023-06-14T12:49:59;5.20;;;2.00;;
72621;SDS011;60665;53.506;9.582;2023-06-14T12:52:24;5.25;;;2.28;;
72621;SDS011;60665;53.506;9.582;2023-06-14T12:54:51;5.78;;;2.13;;
72621;SDS011;60665;53.506;9.582;2023-06-14T12:57:16;8.02;;;2.40;;
72621;SDS011;60665;53.506;9.582;2023-06-14T12:59:42;8.27;;;2.33;;
72621;SDS011;60665;53.506;9.582;2023-06-14T13:02:14;5.50;;;2.42;;
72621;SDS011;60665;53.506;9.582;2023-06-14T13:04:41;8.32;;;2.53;;
72621;SDS011;60665;53.506;9.582;2023-06-14T13:07:06;9.45;;;2.92;;
72621;SDS011;60665;53.506;9.582;2023-06-14T13:09:32;8.43;;;2.22;;
72621;SDS011;60665;53.506;9.582;2023-06-14T13:11:58;8.05;;;2.10;;
72621;SDS011;60665;53.506;9.582;2023-06-14T13:14:23;6.03;;;2.22;;
72621;SDS011;60665;53.506;9.582;2023-06-14T13:16:49;8.15;;;2.65;;
72621;SDS011;60665;53.506;9.582;2023-06-14T13:19:15;7.00;;;1.90;;
72621;SDS011;60665;53.506;9.582;2023-06-14T13:21:41;6.63;;;2.20;;
72621;SDS011;60665;53.506;9.582;2023-06-14T13:24:07;7.22;;;2.30;;
72621;SDS011;60665;53.506;9.582;2023-06-14T13:26:33;6.80;;;1.95;;
72621;SDS011;60665;53.506;9.582;2023-06-14T13:28:59;4.30;;;2.15;;
72621;SDS011;60665;53.506;9.582;2023-06-14T13:31:24;8.50;;;2.08;;
72621;SDS011;60665;53.506;9.582;2023-06-14T13:33:50;6.38;;;2.08;;
72621;SDS011;60665;53.506;9.582;2023-06-14T13:36:15;5.65;;;2.13;;
72621;SDS011;60665;53.506;9.582;2023-06-14T13:38:41;6.30;;;2.50;;
72621;SDS011;60665;53.506;9.582;2023-06-14T13:41:06;6.38;;;2.47;;
72621;SDS011;60665;53.506;9.582;2023-06-14T13:43:33;5.97;;;2.17;;
72621;SDS011;60665;53.506;9.582;2023-06-14T13:45:58;5.47;;;2.20;;
72621;SDS011;60665;53.506;9.582;2023-06-14T13:48:24;6.47;;;1.95;;
72621;SDS011;60665;53.506;9.582;2023-06-14T13:50:50;6.43;;;2.40;;
72621;SDS011;60665;53.506;9.582;2023-06-14T13:53:16;5.07;;;2.10;;
72621;SDS011;60665;53.506;9.582;2023-06-14T13:55:41;5.95;;;2.20;;
72621;SDS011;60665;53.506;9.582;2023-06-14T13:58:06;8.15;;;2.28;;
72621;SDS011;60665;53.506;9.582;2023-06-14T14:00:32;4.78;;;2.20;;
72621;SDS011;60665;53.506;9.582;2023-06-14T14:02:57;5.38;;;1.95;;
72621;SDS011;60665;53.506;9.582;2023-06-14T14:05:25;9.52;;;2.22;;
72621;SDS011;60665;53.506;9.582;2023-06-14T14:07:54;6.10;;;2.00;;
72621;SDS011;60665;53.506;9.582;2023-06-14T14:12:48;6.53;;;2.28;;
72621;SDS011;60665;53.506;9.582;2023-06-14T14:17:43;8.43;;;2.15;;
72621;SDS011;60665;53.506;9.582;2023-06-14T14:20:08;6.03;;;2.28;;
72621;SDS011;60665;53.506;9.582;2023-06-14T14:22:36;6.57;;;1.98;;
72621;SDS011;60665;53.506;9.582;2023-06-14T14:25:02;8.80;;;2.28;;
72621;SDS011;60665;53.506;9.582;2023-06-14T14:27:27;6.25;;;2.47;;
72621;SDS011;60665;53.506;9.582;2023-06-14T14:29:53;6.22;;;2.50;;
72621;SDS011;60665;53.506;9.582;2023-06-14T14:32:21;5.88;;;2.38;;
72621;SDS011;60665;53.506;9.582;2023-06-14T14:34:47;6.70;;;2.30;;
72621;SDS011;60665;53.506;9.582;2023-06-14T14:37:13;8.60;;;2.20;;
72621;SDS011;60665;53.506;9.582;2023-06-14T14:39:40;7.15;;;2.15;;
72621;SDS011;60665;53.506;9.582;2023-06-14T14:42:05;7.35;;;2.35;;
72621;SDS011;60665;53.506;9.582;2023-06-14T14:44:32;4.40;;;2.08;;
72621;SDS011;60665;53.506;9.582;2023-06-14T14:46:58;7.18;;;2.00;;
72621;SDS011;60665;53.506;9.582;2023-06-14T14:49:23;5.55;;;2.35;;
72621;SDS011;60665;53.506;9.582;2023-06-14T14:51:49;6.10;;;2.15;;
72621;SDS011;60665;53.506;9.582;2023-06-14T14:54:15;5.70;;;2.00;;
72621;SDS011;60665;53.506;9.582;2023-06-14T14:56:40;6.05;;;1.90;;
72621;SDS011;60665;53.506;9.582;2023-06-14T14:59:06;12.00;;;2.13;;
72621;SDS011;60665;53.506;9.582;2023-06-14T15:01:31;6.47;;;2.30;;
72621;SDS011;60665;53.506;9.582;2023-06-14T15:03:57;5.13;;;2.20;;
72621;SDS011;60665;53.506;9.582;2023-06-14T15:06:22;6.40;;;2.13;;
72621;SDS011;60665;53.506;9.582;2023-06-14T15:08:47;5.53;;;2.10;;
72621;SDS011;60665;53.506;9.582;2023-06-14T15:11:13;5.22;;;2.47;;
72621;SDS011;60665;53.506;9.582;2023-06-14T15:13:39;5.22;;;2.10;;
72621;SDS011;60665;53.506;9.582;2023-06-14T15:16:05;4.13;;;1.75;;
72621;SDS011;60665;53.506;9.582;2023-06-14T15:18:33;6.32;;;2.30;;
72621;SDS011;60665;53.506;9.582;2023-06-14T15:20:58;5.45;;;2.22;;
72621;SDS011;60665;53.506;9.582;2023-06-14T15:23:25;6.00;;;2.10;;
72621;SDS011;60665;53.506;9.582;2023-06-14T15:25:50;5.03;;;1.63;;